createdAt,value
2023-05-14T04:26:57.489Z,23.73
2023-05-14T04:29:23.965Z,23.62
2023-05-14T04:31:50.460Z,23.83
2023-05-14T04:34:16.942Z,23.76
2023-05-14T04:36:43.428Z,23.93
2023-05-14T04:39:09.897Z,24.10
2023-05-14T04:41:36.386Z,24.28
2023-05-14T04:44:02.842Z,24.14
2023-05-14T04:46:29.337Z,24.27
2023-05-14T04:48:55.891Z,24.29
2023-05-14T04:51:22.314Z,24.20
2023-05-14T04:53:48.696Z,24.11
2023-05-14T04:56:15.190Z,24.32
2023-05-14T04:58:41.632Z,24.03
2023-05-14T05:01:08.170Z,23.96
2023-05-14T05:03:34.771Z,23.83
2023-05-14T05:06:01.283Z,23.72
2023-05-14T05:08:30.587Z,23.69
2023-05-14T05:10:57.078Z,23.76
2023-05-14T05:13:23.537Z,23.70
2023-05-14T05:15:50.204Z,23.76
2023-05-14T05:18:16.673Z,23.76
2023-05-14T05:20:43.301Z,23.69
2023-05-14T05:23:09.803Z,23.75
2023-05-14T05:25:36.501Z,23.72
2023-05-14T05:28:02.920Z,23.72
2023-05-14T05:30:29.555Z,23.70
2023-05-14T05:32:56.081Z,23.78
2023-05-14T05:35:22.590Z,23.80
2023-05-14T05:37:49.168Z,23.82
2023-05-14T05:40:15.588Z,23.94
2023-05-14T05:42:42.013Z,23.89
2023-05-14T05:45:08.412Z,23.86
2023-05-14T05:47:35.028Z,23.86
2023-05-14T05:50:01.471Z,23.87
2023-05-14T05:52:27.946Z,23.83
2023-05-14T05:54:54.405Z,23.89
2023-05-14T05:57:20.891Z,23.81
2023-05-14T05:59:47.346Z,23.87
2023-05-14T06:02:13.838Z,24.02
2023-05-14T06:04:40.381Z,23.82
2023-05-14T06:07:06.883Z,24.07
2023-05-14T06:09:33.361Z,23.99
2023-05-14T06:11:59.869Z,23.92
2023-05-14T06:14:26.292Z,23.92
2023-05-14T06:16:52.798Z,23.91
2023-05-14T06:19:19.531Z,23.84
2023-05-14T06:21:45.989Z,23.82
2023-05-14T06:24:12.502Z,23.75
2023-05-14T06:26:38.941Z,23.76
2023-05-14T06:29:05.414Z,23.82
2023-05-14T06:31:31.978Z,23.83
2023-05-14T06:33:58.465Z,23.86
2023-05-14T06:36:24.964Z,23.80
2023-05-14T06:38:51.393Z,24.06
2023-05-14T06:41:17.897Z,24.02
2023-05-14T06:43:44.391Z,24.06
2023-05-14T06:46:10.894Z,23.88
2023-05-14T06:48:37.379Z,23.96
2023-05-14T06:51:03.837Z,24.03
2023-05-14T06:53:30.318Z,23.94
2023-05-14T06:55:57.183Z,24.05
2023-05-14T06:58:23.687Z,24.01
2023-05-14T07:00:50.197Z,24.04
2023-05-14T07:03:16.621Z,24.05
2023-05-14T07:05:43.025Z,23.93
2023-05-14T07:08:09.468Z,24.07
2023-05-14T07:10:35.900Z,24.18
2023-05-14T07:13:02.328Z,24.07
2023-05-14T07:15:28.840Z,23.99
2023-05-14T07:17:55.560Z,24.02
2023-05-14T07:20:22.236Z,24.00
2023-05-14T07:22:51.817Z,24.01
2023-05-14T07:25:18.346Z,24.10
2023-05-14T07:27:44.842Z,24.09
2023-05-14T07:30:11.364Z,23.96
2023-05-14T07:32:37.945Z,23.95
2023-05-14T07:35:04.520Z,24.06
2023-05-14T07:37:31.088Z,24.09
2023-05-14T07:39:57.633Z,24.17
2023-05-14T07:42:35.214Z,24.10
2023-05-14T07:45:02.965Z,24.24
2023-05-14T07:47:29.648Z,24.31
2023-05-14T07:49:56.235Z,24.17
2023-05-14T07:52:22.749Z,24.30
2023-05-14T07:54:50.691Z,24.20
2023-05-14T07:57:17.303Z,24.29
2023-05-14T07:59:43.829Z,24.20
2023-05-14T08:02:10.349Z,24.42
2023-05-14T08:04:37.169Z,24.49
2023-05-14T08:07:06.784Z,24.38
2023-05-14T08:09:33.265Z,24.56
2023-05-14T08:11:59.779Z,24.61
2023-05-14T08:14:26.259Z,24.57
2023-05-14T08:16:52.838Z,24.46
2023-05-14T08:19:19.528Z,24.52
2023-05-14T08:21:46.102Z,24.33
2023-05-14T08:24:12.559Z,24.16
2023-05-14T08:26:39.023Z,24.27
2023-05-14T08:29:05.543Z,24.16
2023-05-14T08:31:34.805Z,24.21
2023-05-14T08:34:01.292Z,24.18
2023-05-14T08:36:27.837Z,24.42
2023-05-14T08:38:54.287Z,24.41
2023-05-14T08:41:20.732Z,24.48
2023-05-14T08:43:47.160Z,24.47
2023-05-14T08:46:13.597Z,24.65
2023-05-14T08:48:40.123Z,24.68
2023-05-14T08:51:06.551Z,24.78
2023-05-14T08:53:33.024Z,24.59
2023-05-14T08:55:59.652Z,24.83
2023-05-14T08:58:26.172Z,24.87
2023-05-14T09:00:52.694Z,24.93
2023-05-14T09:03:19.323Z,24.94
2023-05-14T09:05:45.924Z,24.88
2023-05-14T09:08:12.392Z,24.89
2023-05-14T09:10:38.915Z,24.89
2023-05-14T09:13:05.441Z,24.63
2023-05-14T09:15:32.117Z,24.78
2023-05-14T09:17:58.637Z,24.78
2023-05-14T09:20:25.422Z,24.87
2023-05-14T09:22:52.324Z,24.96
2023-05-14T09:25:18.830Z,24.86
2023-05-14T09:27:45.329Z,24.59
2023-05-14T09:30:11.792Z,24.45
2023-05-14T09:32:38.407Z,24.46
2023-05-14T09:35:05.002Z,24.46
2023-05-14T09:37:31.478Z,24.52
2023-05-14T09:39:58.045Z,24.55
2023-05-14T09:42:24.549Z,24.47
2023-05-14T09:44:51.005Z,24.52
2023-05-14T09:47:17.502Z,24.74
2023-05-14T09:49:44.006Z,24.47
2023-05-14T09:52:10.537Z,24.53
2023-05-14T09:54:37.062Z,24.59
2023-05-14T09:57:03.616Z,24.58
2023-05-14T09:59:30.066Z,24.85
2023-05-14T10:01:56.575Z,24.79
2023-05-14T10:04:23.099Z,24.88
2023-05-14T10:06:49.611Z,24.86
2023-05-14T10:09:16.124Z,24.72
2023-05-14T10:11:42.635Z,24.77
2023-05-14T10:14:09.185Z,24.69
2023-05-14T10:16:35.716Z,24.66
2023-05-14T10:19:02.263Z,24.53
2023-05-14T10:21:28.813Z,24.61
2023-05-14T10:23:55.300Z,24.67
2023-05-14T10:26:23.846Z,24.70
2023-05-14T10:28:50.636Z,24.78
2023-05-14T10:31:17.173Z,24.81
2023-05-14T10:33:43.704Z,24.81
2023-05-14T10:36:10.218Z,24.77
2023-05-14T10:38:39.829Z,24.96
2023-05-14T10:41:06.338Z,24.81
2023-05-14T10:43:32.886Z,24.93
2023-05-14T10:45:59.435Z,24.94
2023-05-14T10:48:25.999Z,24.79
2023-05-14T10:50:52.531Z,24.59
2023-05-14T10:53:19.039Z,24.73
2023-05-14T10:55:45.604Z,25.01
2023-05-14T10:58:12.106Z,25.09
2023-05-14T11:00:38.705Z,25.03
2023-05-14T11:03:05.291Z,25.09
2023-05-14T11:05:31.830Z,25.16
2023-05-14T11:07:58.438Z,25.18
2023-05-14T11:10:25.258Z,24.75
2023-05-14T11:12:51.945Z,24.71
2023-05-14T11:15:18.554Z,24.53
2023-05-14T11:17:45.092Z,24.74
2023-05-14T11:20:11.667Z,24.64
2023-05-14T11:22:38.171Z,24.53
2023-05-14T11:25:04.671Z,24.43
2023-05-14T11:27:31.138Z,24.33
2023-05-14T11:29:57.655Z,24.33
2023-05-14T11:32:24.256Z,24.27
2023-05-14T11:34:50.805Z,24.23
2023-05-14T11:37:17.267Z,24.32
2023-05-14T11:39:43.711Z,24.32
2023-05-14T11:42:10.203Z,24.20
2023-05-14T11:44:36.710Z,24.30
2023-05-14T11:47:03.303Z,24.44
2023-05-14T11:49:29.815Z,24.43
2023-05-14T11:51:56.339Z,24.48
2023-05-14T11:54:22.815Z,24.49
2023-05-14T11:56:49.285Z,24.55
2023-05-14T11:59:15.737Z,24.62
2023-05-14T12:01:42.251Z,24.50
2023-05-14T12:04:08.924Z,24.46
2023-05-14T12:06:35.394Z,24.47
2023-05-14T12:09:01.914Z,24.49
2023-05-14T12:11:28.442Z,24.42
2023-05-14T12:13:54.911Z,24.45
2023-05-14T12:16:21.457Z,24.48
2023-05-14T12:18:48.108Z,24.51
2023-05-14T12:21:14.677Z,24.41
2023-05-14T12:23:41.166Z,24.45
2023-05-14T12:26:07.708Z,24.59
2023-05-14T12:28:37.685Z,24.64
2023-05-14T12:31:08.004Z,24.56
2023-05-14T12:33:34.516Z,24.56
2023-05-14T12:36:10.025Z,24.63
2023-05-14T12:38:40.276Z,24.77
2023-05-14T12:41:06.782Z,24.75
2023-05-14T12:43:33.330Z,24.68
2023-05-14T12:45:59.831Z,24.69
2023-05-14T12:48:26.281Z,24.65
2023-05-14T12:50:52.705Z,24.83
2023-05-14T12:53:19.212Z,24.75
2023-05-14T12:55:45.698Z,24.84
2023-05-14T12:58:12.199Z,24.81
2023-05-14T13:00:38.743Z,24.67
2023-05-14T13:03:05.263Z,24.75
2023-05-14T13:05:31.720Z,24.71
2023-05-14T13:07:58.188Z,24.87
2023-05-14T13:10:24.896Z,25.18
2023-05-14T13:12:51.379Z,25.26
2023-05-14T13:15:17.864Z,24.86
2023-05-14T13:17:44.384Z,24.80
2023-05-14T13:20:10.945Z,25.06
2023-05-14T13:22:37.400Z,25.20
2023-05-14T13:25:03.918Z,25.13
2023-05-14T13:27:30.516Z,25.21
2023-05-14T13:29:56.963Z,24.99
2023-05-14T13:32:23.513Z,25.23
2023-05-14T13:34:50.084Z,25.30
2023-05-14T13:37:16.579Z,25.25
2023-05-14T13:39:43.120Z,25.14
2023-05-14T13:42:09.581Z,25.28
2023-05-14T13:44:36.056Z,25.12
2023-05-14T13:47:02.469Z,25.05
2023-05-14T13:49:28.979Z,25.15
2023-05-14T13:51:55.492Z,25.42
2023-05-14T13:54:21.984Z,25.46
2023-05-14T13:56:48.480Z,25.59
2023-05-14T13:59:15.023Z,25.75
2023-05-14T14:01:41.642Z,25.80
2023-05-14T14:04:08.120Z,25.61
2023-05-14T14:06:34.674Z,25.57
2023-05-14T14:09:01.409Z,25.25
2023-05-14T14:11:27.977Z,25.27
2023-05-14T14:13:54.456Z,25.21
2023-05-14T14:16:20.984Z,25.25
2023-05-14T14:18:50.628Z,25.19
2023-05-14T14:21:17.221Z,25.23
2023-05-14T14:23:43.713Z,25.31
2023-05-14T14:26:10.238Z,25.43
2023-05-14T14:28:36.679Z,25.50
2023-05-14T14:31:03.229Z,25.40
2023-05-14T14:33:29.700Z,25.37
2023-05-14T14:35:56.150Z,25.26
2023-05-14T14:38:22.767Z,25.21
2023-05-14T14:40:49.321Z,25.18
2023-05-14T14:43:15.946Z,25.31
2023-05-14T14:45:42.492Z,25.39
2023-05-14T14:48:09.092Z,25.60
2023-05-14T14:50:35.625Z,25.57
2023-05-14T14:53:02.087Z,25.54
2023-05-14T14:55:28.604Z,25.43
2023-05-14T14:57:55.153Z,25.35
2023-05-14T15:00:21.704Z,25.27
2023-05-14T15:02:48.361Z,25.28
2023-05-14T15:05:14.858Z,25.26
2023-05-14T15:07:41.457Z,25.29
2023-05-14T15:10:07.930Z,25.52
2023-05-14T15:12:34.356Z,25.94
2023-05-14T15:15:00.835Z,26.12
2023-05-14T15:17:27.422Z,26.34
2023-05-14T15:19:53.875Z,26.60
2023-05-14T15:22:20.368Z,26.64
2023-05-14T15:24:46.865Z,26.47
2023-05-14T15:27:13.425Z,26.74
2023-05-14T15:29:39.920Z,27.06
2023-05-14T15:32:06.389Z,26.74
2023-05-14T15:34:32.933Z,26.44
2023-05-14T15:36:59.389Z,26.21
2023-05-14T15:39:25.828Z,26.16
2023-05-14T15:41:52.242Z,26.10
2023-05-14T15:44:18.696Z,26.19
2023-05-14T15:46:46.468Z,26.94
2023-05-14T15:49:13.008Z,27.13
2023-05-14T15:51:39.425Z,26.91
2023-05-14T15:54:05.922Z,27.49
2023-05-14T15:56:32.398Z,27.13
2023-05-14T15:58:58.928Z,26.71
2023-05-14T16:01:25.412Z,26.54
2023-05-14T16:03:52.011Z,26.38
2023-05-14T16:06:18.549Z,26.28
2023-05-14T16:08:45.066Z,26.08
2023-05-14T16:11:11.527Z,25.94
2023-05-14T16:13:38.009Z,26.88
2023-05-14T16:16:04.551Z,27.46
2023-05-14T16:18:31.173Z,27.83
2023-05-14T16:20:57.884Z,28.24
2023-05-14T16:23:24.324Z,27.96
2023-05-14T16:25:50.848Z,27.70
2023-05-14T16:28:17.361Z,28.04
2023-05-14T16:30:43.842Z,28.72
2023-05-14T16:33:10.580Z,29.24
2023-05-14T16:38:27.569Z,29.83
2023-05-14T16:40:54.049Z,29.58
2023-05-14T16:43:20.569Z,28.74
2023-05-14T16:45:47.173Z,27.56
2023-05-14T16:48:13.706Z,27.29
2023-05-14T16:50:40.236Z,27.02
2023-05-14T16:53:06.690Z,26.87
2023-05-14T16:55:33.256Z,26.66
2023-05-14T16:57:59.702Z,26.89
2023-05-14T17:00:26.097Z,26.93
2023-05-14T17:02:52.702Z,26.86
2023-05-14T17:05:19.186Z,26.78
2023-05-14T17:07:45.625Z,26.54
2023-05-14T17:10:12.138Z,26.49
2023-05-14T17:12:38.664Z,26.35
2023-05-14T17:15:05.568Z,26.16
2023-05-14T17:17:32.330Z,26.18
2023-05-14T17:19:58.917Z,26.09
2023-05-14T17:22:25.708Z,26.07
2023-05-14T17:24:52.203Z,26.13
2023-05-14T17:27:18.665Z,26.08
2023-05-14T17:29:45.104Z,26.06
2023-05-14T17:32:11.603Z,26.01
2023-05-14T17:34:38.139Z,25.93
2023-05-14T17:37:04.654Z,25.80
2023-05-14T17:39:31.178Z,25.72
2023-05-14T17:41:57.638Z,25.63
2023-05-14T17:44:27.082Z,25.67
2023-05-14T17:46:53.642Z,25.64
2023-05-14T17:49:20.173Z,25.63
2023-05-14T17:51:46.626Z,25.59
2023-05-14T17:54:13.112Z,25.56
2023-05-14T17:56:39.635Z,25.57
2023-05-14T17:59:06.164Z,25.51
2023-05-14T18:01:32.658Z,25.54
2023-05-14T18:03:59.225Z,25.53
2023-05-14T18:06:25.905Z,25.48
2023-05-14T18:08:52.384Z,25.43
2023-05-14T18:11:18.850Z,25.43
2023-05-14T18:13:45.352Z,25.40
2023-05-14T18:16:11.845Z,25.41
2023-05-14T18:18:38.411Z,25.39
2023-05-14T18:21:04.936Z,25.35
2023-05-14T18:23:31.461Z,25.40
2023-05-14T18:25:58.035Z,25.41
2023-05-14T18:28:24.543Z,25.36
2023-05-14T18:30:51.131Z,25.29
2023-05-14T18:33:17.657Z,25.21
2023-05-14T18:35:44.171Z,25.26
2023-05-14T18:38:10.813Z,25.23
2023-05-14T18:40:37.309Z,25.28
2023-05-14T18:43:03.909Z,25.27
2023-05-14T18:45:30.462Z,25.21
2023-05-14T18:47:56.913Z,25.16
2023-05-14T18:50:23.434Z,25.21
2023-05-14T18:52:49.943Z,25.24
2023-05-14T18:55:16.501Z,25.00
2023-05-14T18:57:42.986Z,24.89
2023-05-14T19:00:09.496Z,24.80
2023-05-14T19:02:36.109Z,24.66
2023-05-14T19:33:30.463Z,24.53
2023-05-14T19:35:57.004Z,24.42
2023-05-14T19:38:23.532Z,24.45
2023-05-14T19:40:49.951Z,24.44
2023-05-14T19:43:16.384Z,24.44
2023-05-14T19:45:42.942Z,24.43
2023-05-14T19:48:09.541Z,24.31
2023-05-14T19:50:36.061Z,24.47
2023-05-14T19:53:05.342Z,24.43
2023-05-14T19:55:31.838Z,24.36
2023-05-14T19:57:58.854Z,24.44
2023-05-14T20:00:25.648Z,24.40
2023-05-14T20:02:52.414Z,24.40
2023-05-14T20:05:18.990Z,24.33
2023-05-14T20:07:45.501Z,24.09
2023-05-14T20:10:11.960Z,24.00
2023-05-14T20:12:39.088Z,24.01
2023-05-14T20:15:10.343Z,24.32
2023-05-14T20:17:36.830Z,24.36
2023-05-14T20:20:03.339Z,24.43
2023-05-14T20:22:29.744Z,24.37
2023-05-14T20:24:56.203Z,24.41
2023-05-14T20:27:22.712Z,24.32
2023-05-14T20:29:49.216Z,24.33
2023-05-14T20:32:15.733Z,24.36
2023-05-14T20:34:42.189Z,24.39
2023-05-14T20:37:08.725Z,24.46
2023-05-14T20:39:35.264Z,24.41
2023-05-14T20:42:01.708Z,24.42
2023-05-14T20:44:28.138Z,24.51
2023-05-14T20:46:57.690Z,24.35
2023-05-14T20:49:24.199Z,24.40
